Time;durP1;ratioP1;P1;durP2;ratioP2;P2;SDS_P1;SDS_P2;PMS_P1;PMS_P2;Temp;Humidity;BMP_temperature;BMP_pressure;BME280_temperature;BME280_humidity;BME280_pressure;Samples;Min_cycle;Max_cycle;Signal;HPM_P1;HPM_P2
2022/06/19 00:00:17;;;;;;;7.57;3.53;;;;;;;;;;5010247;28;20206;-87
2022/06/19 00:02:46;;;;;;;8.00;3.30;;;;;;;;;;5010742;28;20253;-87
2022/06/19 00:05:14;;;;;;;6.38;3.30;;;;;;;;;;5001878;28;20203;-88
2022/06/19 00:07:43;;;;;;;6.15;3.38;;;;;;;;;;4997202;28;20237;-87
2022/06/19 00:10:21;;;;;;;6.60;3.33;;;;;;;;;;5009415;28;20202;-87
2022/06/19 00:13:02;;;;;;;6.22;3.03;;;;;;;;;;4997122;28;20206;-87
2022/06/19 00:15:32;;;;;;;5.78;3.40;;;;;;;;;;5013840;28;20241;-87
2022/06/19 00:18:01;;;;;;;4.80;3.20;;;;;;;;;;5000566;28;20281;-87
2022/06/19 00:20:31;;;;;;;5.28;3.28;;;;;;;;;;4998269;28;20211;-87
2022/06/19 00:25:47;;;;;;;6.25;3.22;;;;;;;;;;5001657;28;20238;-87
2022/06/19 00:28:14;;;;;;;9.60;3.90;;;;;;;;;;4994259;28;20222;-87
2022/06/19 00:30:44;;;;;;;5.75;2.92;;;;;;;;;;5003966;28;20211;-87
2022/06/19 00:33:21;;;;;;;5.20;3.03;;;;;;;;;;5003980;28;20203;-87
2022/06/19 00:35:55;;;;;;;5.63;3.45;;;;;;;;;;5011580;28;20285;-87
2022/06/19 00:41:20;;;;;;;5.60;3.58;;;;;;;;;;4999841;28;20241;-87
2022/06/19 00:43:55;;;;;;;6.10;3.10;;;;;;;;;;5001132;28;20206;-87
2022/06/19 00:49:50;;;;;;;5.65;3.22;;;;;;;;;;4994849;28;20203;-87
2022/06/19 00:52:20;;;;;;;5.18;3.38;;;;;;;;;;5014242;28;20209;-87
2022/06/19 00:54:55;;;;;;;4.07;3.10;;;;;;;;;;5001722;28;20247;-87
2022/06/19 01:00:38;;;;;;;6.78;3.75;;;;;;;;;;4983891;28;20195;-86
2022/06/19 01:07:13;;;;;;;5.72;3.15;;;;;;;;;;4891268;29;20732;-87
2022/06/19 01:18:37;;;;;;;5.50;3.42;;;;;;;;;;4936968;28;20221;-87
2022/06/19 01:24:54;;;;;;;4.45;3.40;;;;;;;;;;4953178;28;20199;-87
2022/06/19 01:49:05;;;;;;;4.43;3.17;;;;;;;;;;4789717;29;20808;-86
2022/06/19 01:52:02;;;;;;;6.13;3.83;;;;;;;;;;4865945;29;20238;-87
2022/06/19 02:09:23;;;;;;;5.78;3.55;;;;;;;;;;5050058;23;20244;-87
2022/06/19 02:18:10;;;;;;;5.25;3.42;;;;;;;;;;5246460;23;20233;-83
2022/06/19 02:20:38;;;;;;;6.28;3.70;;;;;;;;;;5033465;28;20389;-84
2022/06/19 02:23:05;;;;;;;7.25;3.63;;;;;;;;;;5033390;28;20271;-84
2022/06/19 02:25:35;;;;;;;5.95;3.50;;;;;;;;;;5033927;28;20218;-84
2022/06/19 02:28:03;;;;;;;7.55;3.35;;;;;;;;;;5029478;28;20222;-84
2022/06/19 02:30:30;;;;;;;5.43;3.47;;;;;;;;;;5018732;28;20293;-81
2022/06/19 02:32:58;;;;;;;5.57;3.28;;;;;;;;;;5018959;28;20194;-83
2022/06/19 02:35:26;;;;;;;5.50;4.05;;;;;;;;;;5030743;28;20216;-84
2022/06/19 02:37:54;;;;;;;8.18;3.60;;;;;;;;;;5024699;28;20217;-83
2022/06/19 02:40:25;;;;;;;5.20;3.50;;;;;;;;;;5026515;28;20259;-84
2022/06/19 02:42:54;;;;;;;5.32;3.40;;;;;;;;;;5015678;28;20226;-84
2022/06/19 02:45:23;;;;;;;4.80;3.67;;;;;;;;;;5019323;28;20264;-84
2022/06/19 02:47:50;;;;;;;7.32;3.60;;;;;;;;;;5017889;28;20261;-84
2022/06/19 02:50:19;;;;;;;4.80;3.67;;;;;;;;;;5019854;28;20206;-84
2022/06/19 02:52:46;;;;;;;5.97;3.70;;;;;;;;;;5020666;28;20261;-84
2022/06/19 02:55:14;;;;;;;7.55;3.88;;;;;;;;;;5013842;28;20222;-84
2022/06/19 02:57:42;;;;;;;5.95;3.60;;;;;;;;;;5021865;28;20214;-84
2022/06/19 03:00:14;;;;;;;5.82;3.63;;;;;;;;;;5026670;28;20215;-83
2022/06/19 03:02:41;;;;;;;6.22;3.60;;;;;;;;;;5013143;28;20221;-85
2022/06/19 03:05:14;;;;;;;5.43;3.22;;;;;;;;;;5020981;28;20202;-84
2022/06/19 03:07:42;;;;;;;8.18;3.70;;;;;;;;;;5027817;28;20256;-84
2022/06/19 03:10:10;;;;;;;7.72;3.30;;;;;;;;;;5028352;28;20215;-83
2022/06/19 03:12:37;;;;;;;5.43;3.35;;;;;;;;;;5033012;28;20205;-85
2022/06/19 03:15:05;;;;;;;7.05;3.75;;;;;;;;;;5018895;28;20292;-85
2022/06/19 03:17:34;;;;;;;5.15;3.70;;;;;;;;;;5023864;28;20233;-84
2022/06/19 03:20:01;;;;;;;6.03;3.45;;;;;;;;;;5026720;28;20268;-83
2022/06/19 03:22:28;;;;;;;6.35;3.50;;;;;;;;;;5026054;28;20246;-85
2022/06/19 03:24:56;;;;;;;6.82;3.67;;;;;;;;;;5020730;28;20300;-84
2022/06/19 03:27:23;;;;;;;5.00;3.67;;;;;;;;;;5019745;28;20222;-85
2022/06/19 03:29:50;;;;;;;6.78;3.58;;;;;;;;;;5015369;28;20206;-84
2022/06/19 03:32:18;;;;;;;6.43;4.07;;;;;;;;;;5028111;28;20221;-83
2022/06/19 03:34:47;;;;;;;7.15;3.50;;;;;;;;;;5014674;28;20655;-85
2022/06/19 03:37:14;;;;;;;6.18;3.33;;;;;;;;;;5028220;28;20232;-84
2022/06/19 03:39:42;;;;;;;4.72;3.45;;;;;;;;;;5026328;28;20201;-83
2022/06/19 03:42:09;;;;;;;7.63;3.75;;;;;;;;;;5022464;28;20201;-83
2022/06/19 03:44:36;;;;;;;6.63;3.42;;;;;;;;;;5016044;28;20297;-85
2022/06/19 03:47:04;;;;;;;4.82;3.33;;;;;;;;;;5013613;28;20297;-84
2022/06/19 03:49:31;;;;;;;5.72;3.53;;;;;;;;;;5020001;28;20257;-85
2022/06/19 03:52:00;;;;;;;7.13;3.65;;;;;;;;;;5026396;28;20672;-84
2022/06/19 03:54:27;;;;;;;5.20;3.50;;;;;;;;;;5019381;28;20288;-84
2022/06/19 03:56:54;;;;;;;4.95;3.60;;;;;;;;;;5021038;28;20213;-84
2022/06/19 03:59:21;;;;;;;7.55;3.80;;;;;;;;;;5025713;28;20293;-85
2022/06/19 04:01:49;;;;;;;5.68;3.45;;;;;;;;;;5015279;28;20261;-84
2022/06/19 04:04:16;;;;;;;4.43;3.45;;;;;;;;;;5018440;28;20289;-85
2022/06/19 04:06:44;;;;;;;5.65;3.47;;;;;;;;;;5013029;28;20234;-84
2022/06/19 04:09:15;;;;;;;5.32;3.17;;;;;;;;;;5025676;28;20678;-85
2022/06/19 04:11:43;;;;;;;6.35;3.70;;;;;;;;;;5023670;28;20229;-84
2022/06/19 04:14:10;;;;;;;6.38;3.15;;;;;;;;;;5022673;28;20289;-84
2022/06/19 04:16:37;;;;;;;5.22;3.40;;;;;;;;;;5032725;28;20305;-84
2022/06/19 04:19:06;;;;;;;6.55;3.42;;;;;;;;;;5015143;28;20250;-83
2022/06/19 04:21:35;;;;;;;6.60;3.45;;;;;;;;;;5025269;28;20212;-85
2022/06/19 04:24:04;;;;;;;4.72;3.38;;;;;;;;;;5029969;28;20261;-84
2022/06/19 04:26:34;;;;;;;5.13;3.08;;;;;;;;;;5028064;28;20559;-83
2022/06/19 04:29:02;;;;;;;4.90;3.05;;;;;;;;;;5025959;28;20284;-85
2022/06/19 04:31:29;;;;;;;6.85;3.80;;;;;;;;;;5019254;28;20240;-84
2022/06/19 04:33:56;;;;;;;5.78;3.17;;;;;;;;;;5026980;28;20221;-84
2022/06/19 04:36:25;;;;;;;5.63;3.67;;;;;;;;;;5016271;28;20206;-85
2022/06/19 04:38:56;;;;;;;5.22;3.30;;;;;;;;;;5025897;28;20227;-84
2022/06/19 04:41:24;;;;;;;6.53;3.35;;;;;;;;;;5026436;28;20252;-84
2022/06/19 04:43:53;;;;;;;5.57;3.17;;;;;;;;;;5025789;28;20253;-83
2022/06/19 04:46:21;;;;;;;7.55;3.53;;;;;;;;;;5020413;28;20230;-84
2022/06/19 04:48:48;;;;;;;5.10;3.38;;;;;;;;;;5009757;28;20346;-84
2022/06/19 04:51:16;;;;;;;4.95;3.22;;;;;;;;;;5015290;28;20238;-85
2022/06/19 04:53:43;;;;;;;4.57;3.20;;;;;;;;;;5018480;28;20213;-84
2022/06/19 04:56:11;;;;;;;4.80;3.10;;;;;;;;;;5030135;28;20224;-81
2022/06/19 04:58:39;;;;;;;6.43;3.55;;;;;;;;;;5023266;28;20265;-84
2022/06/19 05:01:10;;;;;;;4.95;3.28;;;;;;;;;;5019525;28;20792;-84
2022/06/19 05:03:38;;;;;;;5.15;3.45;;;;;;;;;;5029803;28;20308;-84
2022/06/19 05:06:05;;;;;;;5.35;3.08;;;;;;;;;;5035929;28;20358;-81
2022/06/19 05:08:35;;;;;;;4.68;3.08;;;;;;;;;;5021278;28;20716;-85
2022/06/19 05:11:03;;;;;;;6.03;3.58;;;;;;;;;;5035865;28;20256;-84
2022/06/19 05:13:31;;;;;;;4.40;3.15;;;;;;;;;;5023898;28;20202;-84
2022/06/19 05:16:06;;;;;;;5.05;3.42;;;;;;;;;;5029271;28;20230;-83
2022/06/19 05:18:35;;;;;;;5.10;3.17;;;;;;;;;;5019541;28;20226;-84
2022/06/19 05:21:04;;;;;;;5.13;3.13;;;;;;;;;;5018628;28;20241;-83
2022/06/19 05:23:31;;;;;;;4.65;3.17;;;;;;;;;;5032302;28;20249;-85
2022/06/19 05:26:00;;;;;;;5.00;3.20;;;;;;;;;;5020030;28;20207;-84
2022/06/19 05:28:29;;;;;;;4.63;3.10;;;;;;;;;;5029345;28;20311;-84
2022/06/19 05:30:57;;;;;;;3.75;3.03;;;;;;;;;;5023638;28;20216;-84
2022/06/19 05:33:24;;;;;;;4.53;3.30;;;;;;;;;;5030190;28;20217;-84
2022/06/19 05:35:53;;;;;;;5.55;3.13;;;;;;;;;;5017827;28;20294;-84
2022/06/19 05:38:20;;;;;;;5.63;3.28;;;;;;;;;;5017083;28;20286;-85
2022/06/19 05:40:48;;;;;;;7.15;3.10;;;;;;;;;;5014220;28;20293;-84
2022/06/19 05:43:15;;;;;;;5.28;3.03;;;;;;;;;;5011371;28;20223;-85
2022/06/19 05:45:50;;;;;;;6.70;3.13;;;;;;;;;;5014414;28;20294;-86
2022/06/19 05:48:17;;;;;;;5.90;3.10;;;;;;;;;;5015792;28;20257;-84
2022/06/19 05:50:44;;;;;;;4.20;2.83;;;;;;;;;;5015297;28;20206;-85
2022/06/19 05:53:13;;;;;;;4.00;3.22;;;;;;;;;;5017416;28;20648;-87
2022/06/19 05:55:40;;;;;;;3.78;2.72;;;;;;;;;;5017758;28;20199;-85
2022/06/19 05:58:08;;;;;;;3.38;2.80;;;;;;;;;;5015499;28;20222;-86
2022/06/19 06:00:35;;;;;;;3.80;2.50;;;;;;;;;;5016605;28;20203;-87
2022/06/19 06:03:03;;;;;;;4.25;2.72;;;;;;;;;;5016332;28;20199;-86
2022/06/19 06:05:30;;;;;;;4.45;2.88;;;;;;;;;;5014588;28;20293;-86
2022/06/19 06:07:57;;;;;;;3.90;3.10;;;;;;;;;;5033954;28;20233;-86
2022/06/19 06:10:26;;;;;;;4.20;2.88;;;;;;;;;;5020886;28;20210;-86
2022/06/19 06:12:53;;;;;;;4.55;3.03;;;;;;;;;;5012055;28;20231;-84
2022/06/19 06:15:21;;;;;;;5.13;3.20;;;;;;;;;;5019616;28;20289;-86
2022/06/19 06:17:54;;;;;;;4.25;2.95;;;;;;;;;;5021763;28;20667;-87
2022/06/19 06:20:21;;;;;;;7.45;3.08;;;;;;;;;;5021865;28;20203;-84
2022/06/19 06:22:50;;;;;;;5.95;3.08;;;;;;;;;;5015720;28;20216;-85
2022/06/19 06:25:21;;;;;;;6.22;3.40;;;;;;;;;;5020386;28;20237;-84
2022/06/19 06:27:57;;;;;;;5.20;2.80;;;;;;;;;;5018526;28;20218;-84
2022/06/19 06:30:58;;;;;;;5.60;3.33;;;;;;;;;;5028481;28;20296;-83
2022/06/19 06:33:25;;;;;;;7.72;3.20;;;;;;;;;;5007178;28;20190;-84
2022/06/19 06:35:56;;;;;;;4.80;2.97;;;;;;;;;;5014218;28;20203;-82
2022/06/19 06:38:25;;;;;;;8.45;3.50;;;;;;;;;;5017466;28;20229;-84
2022/06/19 06:40:53;;;;;;;3.50;2.80;;;;;;;;;;5014730;28;20285;-81
2022/06/19 06:43:22;;;;;;;3.72;2.85;;;;;;;;;;5015696;28;20203;-82
2022/06/19 06:45:51;;;;;;;4.57;3.00;;;;;;;;;;5016526;28;20198;-83
2022/06/19 06:48:21;;;;;;;49.08;23.73;;;;;;;;;;5022485;28;20253;-84
2022/06/19 06:50:48;;;;;;;116.03;51.42;;;;;;;;;;5014919;28;20294;-83
2022/06/19 06:53:17;;;;;;;90.68;44.33;;;;;;;;;;5009213;28;20290;-83
2022/06/19 06:55:45;;;;;;;41.55;23.77;;;;;;;;;;5010583;28;20286;-82
2022/06/19 06:58:13;;;;;;;19.20;12.65;;;;;;;;;;5018722;28;20222;-84
2022/06/19 07:00:42;;;;;;;13.90;8.38;;;;;;;;;;5016281;28;20214;-86
2022/06/19 07:03:11;;;;;;;10.70;6.95;;;;;;;;;;5017394;28;20257;-84
2022/06/19 07:05:38;;;;;;;14.23;6.22;;;;;;;;;;5016360;28;20210;-83
2022/06/19 07:08:06;;;;;;;12.95;6.28;;;;;;;;;;5015385;28;20253;-85
2022/06/19 07:10:33;;;;;;;10.20;5.35;;;;;;;;;;5026705;28;20209;-84
2022/06/19 07:13:10;;;;;;;10.88;5.20;;;;;;;;;;5026116;28;20268;-84
2022/06/19 07:15:37;;;;;;;8.57;4.65;;;;;;;;;;5016992;28;20206;-84
2022/06/19 07:18:06;;;;;;;7.13;4.18;;;;;;;;;;5020282;28;20242;-83
2022/06/19 07:20:33;;;;;;;7.10;4.40;;;;;;;;;;5029338;28;20198;-84
2022/06/19 07:23:01;;;;;;;8.07;4.50;;;;;;;;;;5033669;28;20201;-82
2022/06/19 07:25:28;;;;;;;7.55;4.40;;;;;;;;;;5030470;28;20222;-85
2022/06/19 07:27:55;;;;;;;9.00;4.38;;;;;;;;;;5025416;28;20717;-83
2022/06/19 07:30:26;;;;;;;9.88;4.38;;;;;;;;;;5021972;28;20217;-84
2022/06/19 07:32:53;;;;;;;10.55;4.53;;;;;;;;;;5018359;28;20222;-82
2022/06/19 07:35:25;;;;;;;7.50;4.10;;;;;;;;;;5027619;28;20225;-84
2022/06/19 07:37:53;;;;;;;9.10;4.00;;;;;;;;;;5030240;28;20280;-84
2022/06/19 07:40:21;;;;;;;6.07;4.00;;;;;;;;;;5022349;28;20212;-84
2022/06/19 07:42:48;;;;;;;5.70;3.72;;;;;;;;;;5021671;28;20206;-84
2022/06/19 07:45:16;;;;;;;6.45;4.00;;;;;;;;;;5019791;28;20222;-84
2022/06/19 07:50:30;;;;;;;6.45;4.22;;;;;;;;;;5024885;28;20249;-84
2022/06/19 07:53:08;;;;;;;9.98;4.32;;;;;;;;;;5019485;28;20195;-84
2022/06/19 07:55:36;;;;;;;6.95;4.43;;;;;;;;;;5023114;28;20656;-85
2022/06/19 07:58:06;;;;;;;6.00;4.10;;;;;;;;;;5016481;28;20237;-85
2022/06/19 08:00:35;;;;;;;8.45;4.43;;;;;;;;;;5018786;28;20209;-82
2022/06/19 08:03:03;;;;;;;8.63;4.65;;;;;;;;;;5019678;28;20728;-84
2022/06/19 08:05:34;;;;;;;5.70;4.15;;;;;;;;;;5033545;28;20226;-84
2022/06/19 08:08:03;;;;;;;7.47;4.80;;;;;;;;;;5040695;28;20218;-84
2022/06/19 08:10:31;;;;;;;6.28;5.03;;;;;;;;;;5027347;28;20206;-84
2022/06/19 08:13:01;;;;;;;7.68;4.90;;;;;;;;;;5027236;28;20202;-84
2022/06/19 08:15:29;;;;;;;5.55;4.63;;;;;;;;;;5028953;28;20266;-83
2022/06/19 08:17:57;;;;;;;7.18;5.15;;;;;;;;;;5040322;23;20206;-87
2022/06/19 08:20:24;;;;;;;6.18;5.57;;;;;;;;;;5051602;28;20291;-88
2022/06/19 08:22:54;;;;;;;6.03;5.43;;;;;;;;;;5051437;28;20201;-89
2022/06/19 08:25:23;;;;;;;11.15;6.55;;;;;;;;;;5050927;28;20229;-89
2022/06/19 08:27:53;;;;;;;8.30;6.18;;;;;;;;;;5048469;28;20205;-88
2022/06/19 08:30:22;;;;;;;8.48;5.70;;;;;;;;;;5032633;28;20208;-87
2022/06/19 08:32:49;;;;;;;7.07;5.82;;;;;;;;;;5031966;28;20218;-86
2022/06/19 08:35:17;;;;;;;8.65;6.68;;;;;;;;;;5032000;28;20233;-88
2022/06/19 08:37:45;;;;;;;8.73;6.60;;;;;;;;;;5031577;28;20232;-86
2022/06/19 08:40:24;;;;;;;11.68;6.28;;;;;;;;;;5031706;28;20271;-88
2022/06/19 08:42:57;;;;;;;7.05;5.85;;;;;;;;;;5031649;28;20267;-88
2022/06/19 08:45:30;;;;;;;8.18;6.97;;;;;;;;;;5031107;28;20246;-89
2022/06/19 08:48:15;;;;;;;8.63;6.32;;;;;;;;;;5025821;28;20233;-88
2022/06/19 08:50:46;;;;;;;7.63;6.30;;;;;;;;;;5028959;28;20206;-88
2022/06/19 08:53:30;;;;;;;7.88;6.18;;;;;;;;;;5024427;28;20264;-90
2022/06/19 08:56:12;;;;;;;6.82;5.97;;;;;;;;;;5026128;28;20617;-87
2022/06/19 08:58:50;;;;;;;6.30;5.70;;;;;;;;;;5031572;28;20260;-88
2022/06/19 09:01:32;;;;;;;7.15;5.70;;;;;;;;;;5032205;28;20233;-88
2022/06/19 09:09:56;;;;;;;6.13;5.20;;;;;;;;;;5026646;28;20230;-90
2022/06/19 09:12:40;;;;;;;6.72;5.40;;;;;;;;;;5030237;28;20208;-90
2022/06/19 09:15:12;;;;;;;6.95;6.05;;;;;;;;;;5028452;28;20587;-89
2022/06/19 09:17:46;;;;;;;8.48;5.55;;;;;;;;;;5022272;28;20308;-88
2022/06/19 09:20:17;;;;;;;8.23;5.07;;;;;;;;;;5025502;28;20194;-88
2022/06/19 09:22:51;;;;;;;6.25;5.45;;;;;;;;;;5026658;28;20206;-90
2022/06/19 09:25:40;;;;;;;9.88;5.90;;;;;;;;;;5031412;28;20289;-85
2022/06/19 09:28:12;;;;;;;7.18;4.80;;;;;;;;;;5024977;28;20288;-85
2022/06/19 09:30:42;;;;;;;7.60;5.43;;;;;;;;;;5033602;28;20252;-85
2022/06/19 09:33:11;;;;;;;8.45;5.43;;;;;;;;;;5036225;28;20261;-85
2022/06/19 09:35:48;;;;;;;5.47;4.78;;;;;;;;;;5035208;28;20221;-83
2022/06/19 09:38:20;;;;;;;7.20;5.00;;;;;;;;;;5034995;28;20218;-85
2022/06/19 09:40:52;;;;;;;6.03;4.70;;;;;;;;;;5037475;28;20293;-85
2022/06/19 09:43:30;;;;;;;9.32;4.90;;;;;;;;;;5033889;28;20205;-85
2022/06/19 09:46:07;;;;;;;9.27;5.43;;;;;;;;;;5037075;28;20285;-84
2022/06/19 09:48:38;;;;;;;6.07;4.75;;;;;;;;;;5038184;28;20291;-86
2022/06/19 09:51:19;;;;;;;4.97;4.25;;;;;;;;;;5033607;28;20721;-91
2022/06/19 09:53:58;;;;;;;6.43;4.63;;;;;;;;;;5029418;28;20290;-87
2022/06/19 09:56:30;;;;;;;5.35;4.85;;;;;;;;;;5038821;28;20205;-87
2022/06/19 09:59:04;;;;;;;6.75;4.70;;;;;;;;;;5037636;28;20222;-84
2022/06/19 10:01:32;;;;;;;6.03;5.20;;;;;;;;;;5033798;28;20203;-84
2022/06/19 10:04:01;;;;;;;6.32;5.40;;;;;;;;;;5034254;28;20198;-83
2022/06/19 10:06:35;;;;;;;5.63;4.93;;;;;;;;;;5031538;28;20294;-84
2022/06/19 10:09:05;;;;;;;6.22;5.35;;;;;;;;;;5030154;28;20230;-84
2022/06/19 10:11:34;;;;;;;6.05;5.05;;;;;;;;;;5032284;28;20213;-83
2022/06/19 10:14:05;;;;;;;5.30;4.78;;;;;;;;;;5033263;28;20273;-83
2022/06/19 10:16:44;;;;;;;7.00;5.10;;;;;;;;;;5033299;28;20224;-84
2022/06/19 10:19:16;;;;;;;12.00;5.45;;;;;;;;;;5035738;28;20221;-83
2022/06/19 10:24:35;;;;;;;7.05;5.13;;;;;;;;;;5033706;28;20264;-84
2022/06/19 10:27:10;;;;;;;6.07;5.03;;;;;;;;;;5039081;28;20233;-86
2022/06/19 10:29:53;;;;;;;7.53;5.78;;;;;;;;;;5034488;28;20226;-84
2022/06/19 10:32:30;;;;;;;8.68;5.22;;;;;;;;;;5043775;28;20248;-84
2022/06/19 10:35:04;;;;;;;7.47;5.28;;;;;;;;;;5038420;28;20220;-85
2022/06/19 10:37:37;;;;;;;6.85;5.07;;;;;;;;;;5034355;28;20206;-85
2022/06/19 10:40:23;;;;;;;12.60;5.57;;;;;;;;;;5028569;28;20222;-85
2022/06/19 10:43:04;;;;;;;11.95;6.03;;;;;;;;;;5035716;28;20198;-85
2022/06/19 10:45:45;;;;;;;20.67;7.78;;;;;;;;;;5030985;28;20224;-86
2022/06/19 10:48:29;;;;;;;22.58;9.52;;;;;;;;;;5028656;28;20226;-85
2022/06/19 10:58:45;;;;;;;10.40;7.20;;;;;;;;;;5595362;22;20233;-86
2022/06/19 11:04:12;;;;;;;8.00;5.65;;;;;;;;;;5003221;28;20261;-89
2022/06/19 11:06:42;;;;;;;6.05;5.28;;;;;;;;;;5006795;28;20225;-88
2022/06/19 11:09:13;;;;;;;7.80;5.50;;;;;;;;;;4995734;28;20227;-87
2022/06/19 11:11:40;;;;;;;5.78;5.20;;;;;;;;;;4994626;28;20245;-87
2022/06/19 11:14:12;;;;;;;6.60;5.00;;;;;;;;;;4992722;28;20199;-86
2022/06/19 11:16:56;;;;;;;5.65;5.05;;;;;;;;;;4994505;28;20283;-88
2022/06/19 11:19:37;;;;;;;5.40;4.68;;;;;;;;;;4984677;28;20266;-89
2022/06/19 11:22:07;;;;;;;6.07;5.20;;;;;;;;;;4993724;28;20207;-86
2022/06/19 11:24:36;;;;;;;10.35;5.18;;;;;;;;;;4995048;28;20278;-88
2022/06/19 11:27:04;;;;;;;11.52;5.93;;;;;;;;;;4993161;28;20262;-88
2022/06/19 11:29:33;;;;;;;10.48;6.13;;;;;;;;;;4990831;28;20708;-88
2022/06/19 11:32:09;;;;;;;8.73;5.32;;;;;;;;;;4988622;28;20242;-86
2022/06/19 11:34:47;;;;;;;6.70;4.75;;;;;;;;;;4994182;28;20277;-87
2022/06/19 11:37:18;;;;;;;7.80;4.90;;;;;;;;;;4992744;28;20282;-87
2022/06/19 11:39:49;;;;;;;6.38;5.18;;;;;;;;;;4993363;28;20242;-87
2022/06/19 11:42:25;;;;;;;7.13;5.10;;;;;;;;;;4993043;28;20641;-85
2022/06/19 11:44:53;;;;;;;7.00;5.50;;;;;;;;;;4988546;28;20299;-87
2022/06/19 11:47:27;;;;;;;5.63;4.97;;;;;;;;;;4994584;28;20218;-87
2022/06/19 11:50:10;;;;;;;5.72;5.13;;;;;;;;;;4995514;28;20235;-88
2022/06/19 11:52:37;;;;;;;5.82;5.25;;;;;;;;;;4994785;28;20203;-87
2022/06/19 11:55:05;;;;;;;8.10;5.35;;;;;;;;;;4995230;28;20211;-88
2022/06/19 11:57:34;;;;;;;6.47;5.00;;;;;;;;;;4994994;28;20221;-88
2022/06/19 12:00:02;;;;;;;6.72;5.15;;;;;;;;;;4994850;28;20267;-87
2022/06/19 12:02:33;;;;;;;6.20;5.10;;;;;;;;;;4995149;28;20215;-87
2022/06/19 12:05:01;;;;;;;7.30;5.10;;;;;;;;;;4994986;28;20246;-86
2022/06/19 12:07:30;;;;;;;8.77;5.25;;;;;;;;;;4994704;28;20207;-88
2022/06/19 12:10:00;;;;;;;7.53;4.93;;;;;;;;;;4994663;28;20246;-87
2022/06/19 12:12:28;;;;;;;5.78;5.18;;;;;;;;;;4993449;28;20631;-88
2022/06/19 12:14:59;;;;;;;5.68;5.15;;;;;;;;;;4994798;28;20211;-87
2022/06/19 12:17:28;;;;;;;5.78;5.28;;;;;;;;;;4994698;28;20211;-89
2022/06/19 12:19:58;;;;;;;6.97;5.30;;;;;;;;;;4994719;28;20234;-87
2022/06/19 12:22:35;;;;;;;6.65;5.40;;;;;;;;;;4995829;28;20261;-86
2022/06/19 12:25:05;;;;;;;5.97;4.97;;;;;;;;;;4995715;28;20217;-86
2022/06/19 12:27:35;;;;;;;5.95;5.35;;;;;;;;;;4988619;28;20218;-88
2022/06/19 12:30:05;;;;;;;5.72;5.10;;;;;;;;;;4995164;28;20234;-87
2022/06/19 12:32:34;;;;;;;6.18;5.25;;;;;;;;;;4994848;28;20217;-87
2022/06/19 12:35:05;;;;;;;6.35;5.20;;;;;;;;;;4994283;28;20723;-87
2022/06/19 12:37:33;;;;;;;5.78;5.18;;;;;;;;;;4995353;28;20215;-87
2022/06/19 12:40:00;;;;;;;6.20;5.63;;;;;;;;;;4995067;28;20207;-88
2022/06/19 12:42:33;;;;;;;5.80;5.28;;;;;;;;;;4994795;28;20214;-88
2022/06/19 12:45:07;;;;;;;6.35;5.60;;;;;;;;;;4995086;28;20211;-87
2022/06/19 12:47:38;;;;;;;6.80;5.28;;;;;;;;;;4995056;28;20210;-87
2022/06/19 12:50:17;;;;;;;6.22;5.63;;;;;;;;;;4995105;28;20218;-88
2022/06/19 12:52:49;;;;;;;6.13;5.45;;;;;;;;;;4994646;28;20219;-87
2022/06/19 12:55:25;;;;;;;8.23;5.50;;;;;;;;;;4994793;28;20307;-87
2022/06/19 12:58:06;;;;;;;6.00;5.40;;;;;;;;;;4994595;28;20234;-87
2022/06/19 13:00:38;;;;;;;6.28;5.68;;;;;;;;;;4994181;28;20293;-87
2022/06/19 13:03:23;;;;;;;6.05;5.18;;;;;;;;;;4994444;28;20257;-87
2022/06/19 13:06:06;;;;;;;5.82;5.32;;;;;;;;;;4993255;28;20223;-87
2022/06/19 13:08:41;;;;;;;5.82;5.03;;;;;;;;;;4993084;28;20239;-88
2022/06/19 13:11:15;;;;;;;6.53;5.82;;;;;;;;;;4994046;28;20269;-85
2022/06/19 13:14:00;;;;;;;6.53;5.47;;;;;;;;;;4993577;28;20221;-86
2022/06/19 13:16:32;;;;;;;6.57;5.50;;;;;;;;;;4997151;28;20230;-85
2022/06/19 13:19:04;;;;;;;6.22;5.63;;;;;;;;;;4996374;28;20322;-87
2022/06/19 13:21:38;;;;;;;5.47;4.97;;;;;;;;;;4997327;28;20226;-88
2022/06/19 13:24:15;;;;;;;7.65;5.38;;;;;;;;;;4997070;28;20266;-88
2022/06/19 13:29:37;;;;;;;6.03;5.03;;;;;;;;;;4996435;28;20225;-87
2022/06/19 13:32:08;;;;;;;5.60;5.10;;;;;;;;;;4997547;28;20250;-87
2022/06/19 13:34:45;;;;;;;6.72;5.15;;;;;;;;;;4996604;28;20207;-88
2022/06/19 13:37:16;;;;;;;5.95;5.20;;;;;;;;;;4996796;28;20286;-88
2022/06/19 13:39:47;;;;;;;6.10;5.50;;;;;;;;;;4996270;28;20256;-87
2022/06/19 13:42:24;;;;;;;6.13;5.55;;;;;;;;;;4996754;28;20265;-87
2022/06/19 13:44:57;;;;;;;6.00;5.28;;;;;;;;;;4997228;28;20253;-88
2022/06/19 13:47:29;;;;;;;5.97;5.10;;;;;;;;;;4991240;28;20227;-87
2022/06/19 13:50:01;;;;;;;5.80;5.05;;;;;;;;;;4996979;28;20211;-87
2022/06/19 13:52:43;;;;;;;5.88;5.38;;;;;;;;;;4996567;28;20223;-87
2022/06/19 13:55:33;;;;;;;6.20;5.25;;;;;;;;;;4996583;28;20294;-88
2022/06/19 13:58:04;;;;;;;8.32;5.43;;;;;;;;;;4991755;28;20235;-88
2022/06/19 14:00:38;;;;;;;6.15;5.65;;;;;;;;;;4996296;28;20635;-87
2022/06/19 14:03:23;;;;;;;6.00;5.40;;;;;;;;;;4991240;28;20219;-87
2022/06/19 14:05:52;;;;;;;6.35;5.75;;;;;;;;;;4983743;28;20227;-87
2022/06/19 14:08:26;;;;;;;6.32;5.70;;;;;;;;;;4998008;28;20230;-87
2022/06/19 14:10:57;;;;;;;6.50;5.72;;;;;;;;;;4997024;28;20277;-87
2022/06/19 14:13:31;;;;;;;6.18;5.57;;;;;;;;;;4996500;28;20234;-88
2022/06/19 14:16:08;;;;;;;6.50;5.68;;;;;;;;;;4996555;28;20258;-85
2022/06/19 14:18:40;;;;;;;6.40;5.80;;;;;;;;;;4998168;28;20277;-87
2022/06/19 14:21:18;;;;;;;6.82;6.13;;;;;;;;;;4996865;28;20632;-86
2022/06/19 14:23:50;;;;;;;6.15;5.65;;;;;;;;;;4996817;28;20294;-85
2022/06/19 14:26:25;;;;;;;6.22;5.72;;;;;;;;;;4996084;28;20273;-88
2022/06/19 14:29:16;;;;;;;7.10;6.50;;;;;;;;;;4995704;28;20226;-87
2022/06/19 14:31:46;;;;;;;6.88;6.28;;;;;;;;;;4971665;28;20273;-85
2022/06/19 14:34:13;;;;;;;6.68;6.07;;;;;;;;;;4993950;28;20645;-88
2022/06/19 14:36:40;;;;;;;6.68;6.13;;;;;;;;;;4997901;28;20281;-86
2022/06/19 14:39:23;;;;;;;7.25;6.53;;;;;;;;;;4996022;28;20223;-86
2022/06/19 14:41:57;;;;;;;6.68;6.13;;;;;;;;;;4990818;28;20304;-87
2022/06/19 14:44:25;;;;;;;7.20;6.55;;;;;;;;;;4995915;28;20211;-86
2022/06/19 14:46:59;;;;;;;6.97;6.20;;;;;;;;;;4993475;28;20306;-87
2022/06/19 14:49:51;;;;;;;7.07;6.47;;;;;;;;;;4991119;28;20224;-86
2022/06/19 14:52:26;;;;;;;8.25;6.30;;;;;;;;;;4994728;28;20238;-86
2022/06/19 14:55:03;;;;;;;7.07;6.47;;;;;;;;;;4983047;28;20227;-88
2022/06/19 14:57:34;;;;;;;6.85;6.15;;;;;;;;;;4990634;28;20211;-85
2022/06/19 15:00:02;;;;;;;6.40;5.80;;;;;;;;;;4993649;28;20203;-88
2022/06/19 15:02:35;;;;;;;6.35;5.80;;;;;;;;;;4992451;28;20677;-87
2022/06/19 15:05:12;;;;;;;8.50;6.28;;;;;;;;;;4994276;28;20199;-88
2022/06/19 15:07:43;;;;;;;6.90;6.22;;;;;;;;;;4990510;28;20215;-87
2022/06/19 15:10:21;;;;;;;6.80;6.13;;;;;;;;;;4989290;28;20205;-86
2022/06/19 15:13:03;;;;;;;6.35;5.75;;;;;;;;;;4992866;28;20207;-88
2022/06/19 15:15:33;;;;;;;6.30;5.70;;;;;;;;;;4993679;28;20203;-87
2022/06/19 15:18:07;;;;;;;7.30;6.05;;;;;;;;;;4989456;28;20223;-87
2022/06/19 15:20:44;;;;;;;7.43;5.65;;;;;;;;;;4989671;28;20206;-87
2022/06/19 15:23:32;;;;;;;6.28;5.63;;;;;;;;;;4984398;28;20203;-85
2022/06/19 15:26:17;;;;;;;6.20;5.60;;;;;;;;;;4991821;28;20207;-87
2022/06/19 15:29:02;;;;;;;5.82;5.32;;;;;;;;;;5006306;28;20649;-87
2022/06/19 15:31:45;;;;;;;9.38;5.63;;;;;;;;;;4998932;28;20662;-87
2022/06/19 15:34:27;;;;;;;8.00;5.88;;;;;;;;;;4984415;28;20204;-87
2022/06/19 15:37:14;;;;;;;7.65;5.43;;;;;;;;;;4985373;28;20209;-88
2022/06/19 15:39:45;;;;;;;6.10;4.90;;;;;;;;;;4987401;28;20226;-88
2022/06/19 15:42:22;;;;;;;6.22;5.63;;;;;;;;;;4984168;28;20199;-88
2022/06/19 15:45:11;;;;;;;6.72;5.13;;;;;;;;;;4987257;28;20217;-86
2022/06/19 15:47:54;;;;;;;7.68;5.40;;;;;;;;;;4983575;28;20243;-86
2022/06/19 15:50:26;;;;;;;5.78;5.28;;;;;;;;;;4986023;28;20294;-86
2022/06/19 15:52:53;;;;;;;6.80;5.38;;;;;;;;;;4983215;28;20210;-88
2022/06/19 15:55:23;;;;;;;5.57;4.88;;;;;;;;;;4987531;28;20211;-86
2022/06/19 15:57:53;;;;;;;5.45;4.95;;;;;;;;;;4991432;28;20223;-88
2022/06/19 16:00:27;;;;;;;5.22;4.72;;;;;;;;;;4987985;28;20215;-86
2022/06/19 16:03:00;;;;;;;5.82;5.32;;;;;;;;;;4982340;28;20200;-85
2022/06/19 16:05:29;;;;;;;5.65;5.10;;;;;;;;;;4990569;28;20204;-87
2022/06/19 16:08:00;;;;;;;5.95;5.32;;;;;;;;;;4986694;28;20306;-88
2022/06/19 16:10:31;;;;;;;6.30;5.38;;;;;;;;;;4982675;28;20559;-88
2022/06/19 16:13:11;;;;;;;7.88;5.63;;;;;;;;;;4984015;28;20641;-87
2022/06/19 16:15:39;;;;;;;5.63;5.00;;;;;;;;;;4981371;28;20211;-86
2022/06/19 16:18:21;;;;;;;6.35;5.65;;;;;;;;;;4982673;28;20286;-88
2022/06/19 16:23:39;;;;;;;5.95;5.05;;;;;;;;;;4997405;28;20227;-90
2022/06/19 16:26:07;;;;;;;6.05;5.45;;;;;;;;;;5004766;28;20188;-89
2022/06/19 16:28:36;;;;;;;5.75;5.25;;;;;;;;;;5000164;28;20207;-88
2022/06/19 16:31:05;;;;;;;6.80;5.80;;;;;;;;;;5005362;28;20191;-87
2022/06/19 16:33:37;;;;;;;6.55;5.85;;;;;;;;;;5006692;28;20214;-86
2022/06/19 16:44:26;;;;;;;5.93;5.20;;;;;;;;;;4987997;28;20202;-85
2022/06/19 16:46:57;;;;;;;6.00;5.45;;;;;;;;;;4984421;28;20219;-87
2022/06/19 16:49:28;;;;;;;6.10;5.53;;;;;;;;;;4988220;28;20285;-86
2022/06/19 16:51:57;;;;;;;7.18;6.10;;;;;;;;;;4993022;28;20203;-87
2022/06/19 16:54:36;;;;;;;6.43;5.82;;;;;;;;;;4994197;28;20203;-87
2022/06/19 16:57:06;;;;;;;6.40;5.80;;;;;;;;;;4993063;28;20282;-87